createdAt,value
2023-04-20T00:00:12.703Z,10.48
2023-04-20T00:02:42.270Z,10.51
2023-04-20T00:05:11.997Z,10.51
2023-04-20T00:07:41.698Z,10.51
2023-04-20T00:10:11.031Z,10.51
2023-04-20T00:12:39.286Z,10.57
2023-04-20T00:15:08.738Z,10.44
2023-04-20T00:17:38.703Z,10.46
2023-04-20T00:20:11.185Z,10.43
2023-04-20T00:22:39.387Z,10.45
2023-04-20T00:25:08.721Z,10.49
2023-04-20T00:27:36.905Z,10.43
2023-04-20T00:30:05.789Z,10.40
2023-04-20T00:32:34.104Z,10.41
2023-04-20T00:35:03.879Z,10.41
2023-04-20T00:37:32.162Z,10.38
2023-04-20T00:40:00.428Z,10.35
2023-04-20T00:42:28.650Z,10.27
2023-04-20T00:44:56.871Z,10.27
2023-04-20T00:47:25.124Z,10.19
2023-04-20T00:49:53.563Z,10.22
2023-04-20T00:52:23.578Z,10.22
2023-04-20T00:54:51.904Z,10.17
2023-04-20T00:57:24.272Z,10.15
2023-04-20T00:59:52.653Z,10.15
2023-04-20T01:02:21.676Z,10.10
2023-04-20T01:04:50.511Z,10.12
2023-04-20T01:07:18.608Z,10.04
2023-04-20T01:09:48.321Z,10.12
2023-04-20T01:12:16.686Z,10.09
2023-04-20T01:14:45.016Z,10.05
2023-04-20T01:17:15.198Z,10.04
2023-04-20T01:19:44.978Z,10.04
2023-04-20T01:22:18.216Z,10.06
2023-04-20T01:24:46.750Z,9.98
2023-04-20T01:27:16.681Z,10.01
2023-04-20T01:29:45.086Z,10.04
2023-04-20T01:32:14.114Z,10.05
2023-04-20T01:34:42.880Z,9.98
2023-04-20T01:37:11.056Z,9.95
2023-04-20T01:39:41.959Z,9.96
2023-04-20T01:42:10.432Z,9.97
2023-04-20T01:44:41.193Z,10.00
2023-04-20T01:47:09.395Z,9.97
2023-04-20T01:49:37.619Z,9.92
2023-04-20T01:52:06.079Z,9.95
2023-04-20T01:54:34.371Z,9.91
2023-04-20T01:57:04.162Z,9.96
2023-04-20T01:59:32.369Z,9.92
2023-04-20T02:02:00.627Z,9.88
2023-04-20T02:04:28.944Z,9.84
2023-04-20T02:06:57.182Z,9.83
2023-04-20T02:09:25.713Z,9.83
2023-04-20T02:11:53.964Z,9.81
2023-04-20T02:14:23.563Z,9.77
2023-04-20T02:16:53.382Z,9.79
2023-04-20T02:19:21.715Z,9.77
2023-04-20T02:21:50.025Z,9.77
2023-04-20T02:24:18.720Z,9.74
2023-04-20T02:26:46.885Z,9.80
2023-04-20T02:29:15.096Z,9.81
2023-04-20T02:31:44.734Z,9.81
2023-04-20T02:34:13.011Z,9.82
2023-04-20T02:36:41.115Z,9.80
2023-04-20T02:39:10.300Z,9.77
2023-04-20T02:41:38.434Z,9.73
2023-04-20T02:44:06.855Z,9.74
2023-04-20T02:46:35.156Z,9.73
2023-04-20T02:49:04.999Z,9.72
2023-04-20T02:51:33.394Z,9.70
2023-04-20T02:54:01.766Z,9.69
2023-04-20T02:56:30.030Z,9.64
2023-04-20T02:58:58.238Z,9.60
2023-04-20T03:01:27.043Z,9.57
2023-04-20T03:03:55.467Z,9.55
2023-04-20T03:06:26.772Z,9.56
2023-04-20T03:08:55.056Z,9.60
2023-04-20T03:11:23.247Z,9.60
2023-04-20T03:13:52.702Z,9.57
2023-04-20T03:16:21.382Z,9.57
2023-04-20T03:18:49.666Z,9.59
2023-04-20T03:21:17.792Z,9.60
2023-04-20T03:23:47.535Z,9.60
2023-04-20T03:26:15.625Z,9.59
2023-04-20T03:28:44.252Z,9.56
2023-04-20T03:31:12.422Z,9.50
2023-04-20T03:33:40.647Z,9.54
2023-04-20T03:36:09.622Z,9.55
2023-04-20T03:38:38.225Z,9.51
2023-04-20T03:41:08.579Z,9.50
2023-04-20T03:43:36.852Z,9.48
2023-04-20T03:46:05.093Z,9.47
2023-04-20T03:48:34.051Z,9.45
2023-04-20T03:51:02.233Z,9.48
2023-04-20T03:53:30.414Z,9.45
2023-04-20T03:55:58.560Z,9.43
2023-04-20T03:58:28.142Z,9.41
2023-04-20T04:01:03.402Z,9.43
2023-04-20T04:03:31.813Z,9.43
2023-04-20T04:06:00.262Z,9.40
2023-04-20T04:08:28.492Z,9.43
2023-04-20T04:10:56.736Z,9.40
2023-04-20T04:13:24.887Z,9.42
2023-04-20T04:15:54.548Z,9.37
2023-04-20T04:18:23.689Z,9.33
2023-04-20T04:20:51.888Z,9.35
2023-04-20T04:23:20.065Z,9.32
2023-04-20T04:25:48.713Z,9.34
2023-04-20T04:28:17.289Z,9.35
2023-04-20T04:30:45.632Z,9.32
2023-04-20T04:33:15.242Z,9.33
2023-04-20T04:35:44.067Z,9.33
2023-04-20T04:38:14.187Z,9.29
2023-04-20T04:40:46.023Z,9.31
2023-04-20T04:43:15.096Z,9.27
2023-04-20T04:45:43.297Z,9.28
2023-04-20T04:48:23.442Z,9.25
2023-04-20T04:50:51.811Z,9.27
2023-04-20T04:53:20.122Z,9.25
2023-04-20T04:55:48.733Z,9.25
2023-04-20T04:58:17.281Z,9.23
2023-04-20T05:00:45.518Z,9.24
2023-04-20T05:03:14.508Z,9.24
2023-04-20T05:05:44.948Z,9.19
2023-04-20T05:08:13.056Z,9.20
2023-04-20T05:10:41.340Z,9.16
2023-04-20T05:13:09.484Z,9.20
2023-04-20T05:15:37.691Z,9.18
2023-04-20T05:18:06.281Z,9.23
2023-04-20T05:20:34.637Z,9.21
2023-04-20T05:23:04.464Z,9.21
2023-04-20T05:25:34.012Z,9.19
2023-04-20T05:28:02.180Z,9.16
2023-04-20T05:30:30.354Z,9.17
2023-04-20T05:32:58.856Z,9.17
2023-04-20T05:35:27.387Z,9.17
2023-04-20T05:37:55.704Z,9.14
2023-04-20T05:40:25.652Z,9.12
2023-04-20T05:42:53.907Z,9.09
2023-04-20T05:45:22.221Z,9.15
2023-04-20T05:47:57.618Z,9.20
2023-04-20T05:50:26.703Z,9.16
2023-04-20T05:52:55.509Z,9.14
2023-04-20T05:55:25.695Z,9.12
2023-04-20T05:57:54.250Z,9.14
2023-04-20T06:00:25.914Z,9.16
2023-04-20T06:02:55.352Z,9.14
2023-04-20T06:05:24.066Z,9.12
2023-04-20T06:07:53.319Z,9.11
2023-04-20T06:10:21.738Z,9.10
2023-04-20T06:12:51.463Z,9.11
2023-04-20T06:15:20.609Z,9.12
2023-04-20T06:17:50.887Z,9.14
2023-04-20T06:20:20.289Z,9.18
2023-04-20T06:22:48.634Z,9.20
2023-04-20T06:25:17.237Z,9.24
2023-04-20T06:27:45.470Z,9.26
2023-04-20T06:30:16.313Z,9.30
2023-04-20T06:32:44.819Z,9.31
2023-04-20T06:35:13.042Z,9.33
2023-04-20T06:37:41.428Z,9.36
2023-04-20T06:40:10.322Z,9.39
2023-04-20T06:42:38.489Z,9.39
2023-04-20T06:45:08.505Z,9.35
2023-04-20T06:47:38.406Z,9.38
2023-04-20T06:50:10.006Z,9.45
2023-04-20T06:52:39.080Z,9.47
2023-04-20T06:55:13.441Z,9.47
2023-04-20T06:57:43.968Z,9.46
2023-04-20T07:00:13.548Z,9.41
2023-04-20T07:02:47.238Z,9.52
2023-04-20T07:05:18.972Z,9.53
2023-04-20T07:07:47.128Z,9.56
2023-04-20T07:10:16.862Z,9.64
2023-04-20T07:12:49.680Z,9.73
2023-04-20T07:15:18.301Z,9.84
2023-04-20T07:17:48.006Z,9.93
2023-04-20T07:20:16.329Z,10.02
2023-04-20T07:22:44.528Z,10.14
2023-04-20T07:25:12.636Z,10.27
2023-04-20T07:27:42.794Z,10.30
2023-04-20T07:30:12.190Z,10.42
2023-04-20T07:32:41.725Z,10.51
2023-04-20T07:35:12.510Z,10.59
2023-04-20T07:37:40.907Z,10.56
2023-04-20T07:40:10.487Z,10.58
2023-04-20T07:42:38.804Z,10.66
2023-04-20T07:45:08.190Z,10.74
2023-04-20T07:47:37.111Z,10.82
2023-04-20T07:50:07.400Z,10.79
2023-04-20T07:52:37.262Z,10.86
2023-04-20T07:55:06.836Z,10.98
2023-04-20T07:57:36.875Z,11.07
2023-04-20T08:00:07.174Z,11.09
2023-04-20T08:02:35.485Z,11.11
2023-04-20T08:05:04.516Z,11.08
2023-04-20T08:07:33.434Z,11.07
2023-04-20T08:10:03.200Z,11.15
2023-04-20T08:12:31.505Z,11.18
2023-04-20T08:15:04.415Z,11.18
2023-04-20T08:17:34.075Z,11.24
2023-04-20T08:20:02.435Z,11.33
2023-04-20T08:22:31.035Z,11.37
2023-04-20T08:24:59.514Z,11.42
2023-04-20T08:27:30.670Z,11.45
2023-04-20T08:29:58.998Z,11.52
2023-04-20T08:32:27.240Z,11.54
2023-04-20T08:34:56.557Z,11.60
2023-04-20T08:37:25.624Z,11.63
2023-04-20T08:39:53.839Z,11.74
2023-04-20T08:42:22.120Z,11.71
2023-04-20T08:44:52.031Z,11.82
2023-04-20T08:47:22.278Z,11.86
2023-04-20T08:49:54.400Z,11.87
2023-04-20T08:52:22.703Z,11.85
2023-04-20T08:54:56.893Z,11.94
2023-04-20T08:57:26.133Z,11.89
2023-04-20T08:59:57.821Z,11.99
2023-04-20T09:02:26.318Z,12.06
2023-04-20T09:05:02.978Z,12.15
2023-04-20T09:07:31.415Z,12.14
2023-04-20T09:10:00.675Z,12.23
2023-04-20T09:12:29.298Z,12.34
2023-04-20T09:14:58.905Z,12.40
2023-04-20T09:17:34.881Z,12.45
2023-04-20T09:20:05.188Z,12.43
2023-04-20T09:22:35.087Z,12.47
2023-04-20T09:25:14.093Z,12.56
2023-04-20T09:27:42.355Z,12.56
2023-04-20T09:30:15.169Z,12.63
2023-04-20T09:32:43.345Z,12.74
2023-04-20T09:35:11.688Z,12.86
2023-04-20T09:37:48.981Z,12.76
2023-04-20T09:40:17.893Z,12.82
2023-04-20T09:42:46.589Z,12.91
2023-04-20T09:45:16.926Z,12.91
2023-04-20T09:47:45.863Z,12.87
2023-04-20T09:50:26.878Z,12.92
2023-04-20T09:53:01.957Z,13.03
2023-04-20T09:55:32.043Z,13.15
2023-04-20T09:58:03.598Z,13.32
2023-04-20T10:00:33.036Z,13.44
2023-04-20T10:03:01.481Z,13.50
2023-04-20T10:05:37.410Z,13.56
2023-04-20T10:08:05.614Z,13.61
2023-04-20T10:10:45.367Z,13.73
2023-04-20T10:13:13.720Z,13.72
2023-04-20T10:15:44.266Z,13.85
2023-04-20T10:18:21.312Z,13.89
2023-04-20T10:20:49.514Z,13.95
2023-04-20T10:23:19.623Z,14.06
2023-04-20T10:25:57.846Z,14.10
2023-04-20T10:28:26.298Z,14.03
2023-04-20T10:30:56.342Z,14.14
2023-04-20T10:33:24.679Z,14.18
2023-04-20T10:35:57.975Z,14.05
2023-04-20T10:38:29.969Z,13.97
2023-04-20T10:40:58.045Z,14.01
2023-04-20T10:43:26.350Z,13.98
2023-04-20T10:45:56.039Z,14.11
2023-04-20T10:48:24.347Z,14.20
2023-04-20T10:50:52.456Z,14.29
2023-04-20T10:53:25.236Z,14.37
2023-04-20T10:56:00.198Z,14.44
2023-04-20T10:58:28.601Z,14.45
2023-04-20T11:01:02.578Z,14.49
2023-04-20T11:03:31.909Z,14.49
2023-04-20T11:06:01.650Z,14.60
2023-04-20T11:08:40.821Z,14.69
2023-04-20T11:11:20.105Z,14.72
2023-04-20T11:13:48.751Z,14.62
2023-04-20T11:16:21.810Z,14.49
2023-04-20T11:18:52.980Z,14.44
2023-04-20T11:21:22.106Z,14.40
2023-04-20T11:23:50.802Z,14.44
2023-04-20T11:26:21.816Z,14.48
2023-04-20T11:28:55.544Z,14.53
2023-04-20T11:31:28.198Z,14.45
2023-04-20T11:33:56.636Z,14.40
2023-04-20T11:36:26.580Z,14.50
2023-04-20T11:38:55.483Z,14.61
2023-04-20T11:41:24.092Z,14.57
2023-04-20T11:43:52.525Z,14.71
2023-04-20T11:46:21.472Z,14.63
2023-04-20T11:48:51.081Z,14.64
2023-04-20T11:51:19.240Z,14.70
2023-04-20T11:53:47.718Z,14.86
2023-04-20T11:56:16.055Z,14.92
2023-04-20T11:58:44.278Z,14.95
2023-04-20T12:01:13.374Z,14.95
2023-04-20T12:03:41.674Z,14.91
2023-04-20T12:06:11.815Z,14.87
2023-04-20T12:08:40.074Z,14.87
2023-04-20T12:11:08.189Z,14.90
2023-04-20T12:13:36.451Z,14.95
2023-04-20T12:16:04.560Z,14.94
2023-04-20T12:18:33.095Z,14.88
2023-04-20T12:21:01.559Z,14.85
2023-04-20T12:23:31.126Z,14.83
2023-04-20T12:25:59.363Z,14.80
2023-04-20T12:28:29.973Z,14.86
2023-04-20T12:30:58.694Z,14.78
2023-04-20T12:33:27.037Z,14.98
2023-04-20T12:35:55.210Z,15.11
2023-04-20T12:38:23.467Z,15.24
2023-04-20T12:40:52.972Z,15.35
2023-04-20T12:43:22.146Z,15.26
2023-04-20T12:45:50.470Z,15.29
2023-04-20T12:48:20.719Z,15.21
2023-04-20T12:50:49.127Z,15.22
2023-04-20T12:53:17.360Z,15.22
2023-04-20T12:55:45.533Z,15.23
2023-04-20T12:58:16.217Z,15.39
2023-04-20T13:00:44.971Z,15.45
2023-04-20T13:03:13.325Z,15.27
2023-04-20T13:05:41.535Z,15.17
2023-04-20T13:08:15.019Z,15.03
2023-04-20T13:10:43.829Z,15.02
2023-04-20T13:13:12.029Z,15.15
2023-04-20T13:15:41.896Z,15.21
2023-04-20T13:18:10.822Z,15.12
2023-04-20T13:20:39.303Z,15.19
2023-04-20T13:23:07.770Z,15.29
2023-04-20T13:25:38.329Z,15.24
2023-04-20T13:28:07.067Z,15.23
2023-04-20T13:30:36.700Z,15.26
2023-04-20T13:33:06.989Z,15.26
2023-04-20T13:35:36.174Z,15.24
2023-04-20T13:38:05.225Z,15.31
2023-04-20T13:40:33.554Z,15.39
2023-04-20T13:43:01.734Z,15.28
2023-04-20T13:45:30.150Z,15.38
2023-04-20T13:47:58.896Z,15.48
2023-04-20T13:50:28.552Z,15.39
2023-04-20T13:52:56.840Z,15.34
2023-04-20T13:55:26.797Z,15.24
2023-04-20T13:57:55.332Z,15.20
2023-04-20T14:00:23.994Z,15.22
2023-04-20T14:02:52.257Z,15.05
2023-04-20T14:05:20.450Z,14.97
2023-04-20T14:07:49.984Z,14.99
2023-04-20T14:10:18.335Z,15.08
2023-04-20T14:12:46.962Z,15.14
2023-04-20T14:15:15.373Z,15.15
2023-04-20T14:17:43.624Z,15.09
2023-04-20T14:20:13.129Z,15.10
2023-04-20T14:22:43.973Z,15.00
2023-04-20T14:25:13.669Z,15.12
2023-04-20T14:27:41.829Z,15.07
2023-04-20T14:30:11.377Z,14.94
2023-04-20T14:32:39.716Z,14.78
2023-04-20T14:35:09.317Z,14.66
2023-04-20T14:37:37.674Z,14.64
2023-04-20T14:40:07.762Z,14.67
2023-04-20T14:42:41.650Z,14.73
2023-04-20T14:45:11.268Z,14.76
2023-04-20T14:47:39.934Z,14.67
2023-04-20T14:50:09.870Z,14.65
2023-04-20T14:52:38.163Z,14.55
2023-04-20T14:55:07.313Z,14.52
2023-04-20T14:57:35.691Z,14.44
2023-04-20T15:00:07.142Z,14.38
2023-04-20T15:02:35.552Z,14.17
2023-04-20T15:05:10.322Z,14.09
2023-04-20T15:07:39.233Z,14.03
2023-04-20T15:10:07.925Z,13.98
2023-04-20T15:12:36.169Z,13.80
2023-04-20T15:15:06.627Z,13.72
2023-04-20T15:17:34.833Z,13.71
2023-04-20T15:20:03.270Z,13.61
2023-04-20T15:22:31.582Z,13.56
2023-04-20T15:24:59.823Z,13.49
2023-04-20T15:27:28.101Z,13.43
2023-04-20T15:29:58.182Z,13.38
2023-04-20T15:32:30.266Z,13.34
2023-04-20T15:35:02.187Z,13.18
2023-04-20T15:37:30.310Z,13.18
2023-04-20T15:39:59.313Z,13.21
2023-04-20T15:42:28.922Z,13.23
2023-04-20T15:44:56.993Z,13.20
2023-04-20T15:47:25.497Z,13.01
2023-04-20T15:50:01.395Z,13.00
2023-04-20T15:52:30.958Z,13.01
2023-04-20T15:54:59.149Z,12.87
2023-04-20T15:57:27.522Z,12.87
2023-04-20T15:59:55.698Z,12.89
2023-04-20T16:02:24.266Z,12.90
2023-04-20T16:04:54.370Z,12.85
2023-04-20T16:07:25.623Z,12.83
2023-04-20T16:09:54.205Z,12.80
2023-04-20T16:12:22.435Z,12.76
2023-04-20T16:14:52.444Z,12.76
2023-04-20T16:17:22.079Z,12.73
2023-04-20T16:19:50.454Z,12.65
2023-04-20T16:22:20.236Z,12.59
2023-04-20T16:24:48.505Z,12.60
2023-04-20T16:27:17.210Z,12.67
2023-04-20T16:29:47.681Z,12.66
2023-04-20T16:32:16.020Z,12.65
2023-04-20T16:34:44.202Z,12.67
2023-04-20T16:37:16.777Z,12.63
2023-04-20T16:39:46.522Z,12.56
2023-04-20T16:42:15.251Z,12.57
2023-04-20T16:44:43.464Z,12.58
2023-04-20T16:47:11.620Z,12.59
2023-04-20T16:49:39.879Z,12.60
2023-04-20T16:52:08.813Z,12.60
2023-04-20T16:54:37.438Z,12.60
2023-04-20T16:57:07.214Z,12.61
2023-04-20T16:59:35.443Z,12.59
2023-04-20T17:02:05.519Z,12.56
2023-04-20T17:04:33.948Z,12.51
2023-04-20T17:07:02.377Z,12.46
2023-04-20T17:09:30.717Z,12.46
2023-04-20T17:11:59.474Z,12.45
2023-04-20T17:14:30.367Z,12.43
2023-04-20T17:16:58.723Z,12.47
2023-04-20T17:19:26.957Z,12.44
2023-04-20T17:21:55.161Z,12.41
2023-04-20T17:24:23.452Z,12.41
2023-04-20T17:26:53.181Z,12.36
2023-04-20T17:29:21.487Z,12.38
2023-04-20T17:31:51.321Z,12.40
2023-04-20T17:34:20.207Z,12.39
2023-04-20T17:36:48.817Z,12.43
2023-04-20T17:39:16.984Z,12.41
2023-04-20T17:41:45.888Z,12.44
2023-04-20T17:44:14.108Z,12.39
2023-04-20T17:46:42.285Z,12.40
2023-04-20T17:49:12.074Z,12.37
2023-04-20T17:51:40.341Z,12.32
2023-04-20T17:54:08.513Z,12.34
2023-04-20T17:56:36.753Z,12.28
2023-04-20T17:59:05.619Z,12.34
2023-04-20T18:01:34.855Z,12.30
2023-04-20T18:04:03.269Z,12.32
2023-04-20T18:06:33.989Z,12.32
2023-04-20T18:09:04.970Z,12.31
2023-04-20T18:11:33.167Z,12.31
2023-04-20T18:14:02.194Z,12.34
2023-04-20T18:16:30.401Z,12.32
2023-04-20T18:18:58.617Z,12.25
2023-04-20T18:21:27.117Z,12.25
2023-04-20T18:23:56.868Z,12.24
2023-04-20T18:26:25.564Z,12.26
2023-04-20T18:28:53.736Z,12.21
2023-04-20T18:31:22.044Z,12.16
2023-04-20T18:33:50.252Z,12.16
2023-04-20T18:36:18.373Z,12.13
2023-04-20T18:38:46.590Z,12.13
2023-04-20T18:41:18.185Z,12.13
2023-04-20T18:43:49.719Z,12.12
2023-04-20T18:46:20.095Z,12.07
2023-04-20T18:48:48.278Z,12.07
2023-04-20T18:51:16.544Z,12.05
2023-04-20T18:53:44.824Z,12.02
2023-04-20T18:56:12.910Z,11.98
2023-04-20T18:58:42.844Z,11.97
2023-04-20T19:01:11.182Z,11.96
2023-04-20T19:03:39.587Z,11.95
2023-04-20T19:06:07.901Z,11.91
2023-04-20T19:08:36.047Z,11.91
2023-04-20T19:11:04.409Z,11.88
2023-04-20T19:13:32.594Z,11.86
2023-04-20T19:16:02.356Z,11.81
2023-04-20T19:18:30.561Z,11.78
2023-04-20T19:20:58.934Z,11.78
2023-04-20T19:23:27.304Z,11.74
2023-04-20T19:25:55.650Z,11.72
2023-04-20T19:28:24.373Z,11.69
2023-04-20T19:30:52.840Z,11.63
2023-04-20T19:33:22.459Z,11.63
2023-04-20T19:35:51.740Z,11.59
2023-04-20T19:38:20.109Z,11.50
2023-04-20T19:40:49.245Z,11.53
2023-04-20T19:43:18.220Z,11.49
2023-04-20T19:45:46.572Z,11.47
2023-04-20T19:48:14.696Z,11.44
2023-04-20T19:50:44.502Z,11.41
2023-04-20T19:53:12.703Z,11.39
2023-04-20T19:55:40.821Z,11.36
2023-04-20T19:58:10.725Z,11.38
2023-04-20T20:00:39.347Z,11.36
2023-04-20T20:03:08.404Z,11.36
2023-04-20T20:05:36.923Z,11.31
2023-04-20T20:08:06.600Z,11.29
2023-04-20T20:10:37.699Z,11.30
2023-04-20T20:13:06.085Z,11.29
2023-04-20T20:15:34.341Z,11.25
2023-04-20T20:18:02.635Z,11.23
2023-04-20T20:20:32.459Z,11.25
2023-04-20T20:23:01.318Z,11.23
2023-04-20T20:25:31.490Z,11.23
2023-04-20T20:28:00.949Z,11.24
2023-04-20T20:30:29.187Z,11.20
2023-04-20T20:32:58.997Z,11.14
2023-04-20T20:35:31.582Z,11.15
2023-04-20T20:38:00.035Z,11.15
2023-04-20T20:40:28.230Z,11.16
2023-04-20T20:42:58.670Z,11.14
2023-04-20T20:45:28.091Z,11.13
2023-04-20T20:47:56.381Z,11.11
2023-04-20T20:50:26.367Z,11.08
2023-04-20T20:52:54.608Z,11.10
2023-04-20T20:55:22.864Z,11.06
2023-04-20T20:57:51.491Z,11.07
2023-04-20T21:00:21.300Z,11.06
2023-04-20T21:02:49.611Z,11.10
2023-04-20T21:05:18.914Z,11.12
2023-04-20T21:07:47.214Z,11.12
2023-04-20T21:10:15.363Z,11.16
2023-04-20T21:12:43.456Z,11.17
2023-04-20T21:15:12.823Z,11.19
2023-04-20T21:17:42.501Z,11.19
2023-04-20T21:20:11.913Z,11.18
2023-04-20T21:22:40.588Z,11.19
2023-04-20T21:25:09.441Z,11.19
2023-04-20T21:27:37.655Z,11.18
2023-04-20T21:30:06.746Z,11.18
2023-04-20T21:32:34.969Z,11.16
2023-04-20T21:35:10.064Z,11.12
2023-04-20T21:37:38.318Z,11.11
2023-04-20T21:40:07.990Z,11.10
2023-04-20T21:42:36.201Z,11.09
2023-04-20T21:45:05.782Z,11.07
2023-04-20T21:47:34.140Z,11.08
2023-04-20T21:50:02.337Z,11.07
2023-04-20T21:52:32.394Z,11.04
2023-04-20T21:55:02.442Z,11.07
2023-04-20T21:57:30.651Z,11.07
2023-04-20T21:59:58.824Z,11.05
2023-04-20T22:02:27.169Z,11.07
2023-04-20T22:04:56.145Z,11.00
2023-04-20T22:07:24.368Z,11.02
2023-04-20T22:09:54.843Z,11.00
2023-04-20T22:12:38.288Z,10.93
2023-04-20T22:15:10.887Z,10.93
2023-04-20T22:17:39.174Z,10.89
2023-04-20T22:20:09.429Z,10.88
2023-04-20T22:22:38.888Z,10.90
2023-04-20T22:25:10.093Z,10.87
2023-04-20T22:27:39.039Z,10.84
2023-04-20T22:30:09.719Z,10.81
2023-04-20T22:32:38.624Z,10.82
2023-04-20T22:35:07.913Z,10.82
2023-04-20T22:37:36.425Z,10.81
2023-04-20T22:40:07.726Z,10.81
2023-04-20T22:42:37.360Z,10.79
2023-04-20T22:45:06.274Z,10.79
2023-04-20T22:47:34.604Z,10.74
2023-04-20T22:50:03.405Z,10.75
2023-04-20T22:52:32.043Z,10.71
2023-04-20T22:55:01.267Z,10.70
2023-04-20T22:57:29.436Z,10.68
2023-04-20T22:59:59.917Z,10.66
2023-04-20T23:02:28.203Z,10.64
2023-04-20T23:04:56.946Z,10.61
2023-04-20T23:07:27.663Z,10.63
2023-04-20T23:09:56.662Z,10.59
2023-04-20T23:12:26.312Z,10.58
2023-04-20T23:14:55.014Z,10.58
2023-04-20T23:17:24.758Z,10.59
2023-04-20T23:19:52.942Z,10.60
2023-04-20T23:22:21.151Z,10.59
2023-04-20T23:24:49.367Z,10.58
2023-04-20T23:27:17.948Z,10.57
2023-04-20T23:29:46.501Z,10.55
2023-04-20T23:32:14.682Z,10.52
2023-04-20T23:34:46.116Z,10.52
2023-04-20T23:37:14.321Z,10.53
2023-04-20T23:39:42.533Z,10.54
2023-04-20T23:42:10.868Z,10.50
2023-04-20T23:44:39.073Z,10.51
2023-04-20T23:47:07.298Z,10.51
2023-04-20T23:49:35.553Z,10.49
2023-04-20T23:52:05.861Z,10.47
2023-04-20T23:54:34.335Z,10.46
2023-04-20T23:57:02.803Z,10.43
2023-04-20T23:59:34.027Z,10.43
